Time,TemperatureF,DewpointF,PressureIn,WindDirection,WindDirectionDegrees,WindSpeedMPH,WindSpeedGustMPH,Humidity,HourlyPrecipIn,Conditions,Clouds,dailyrainin,SolarRadiationWatts/m^2,SoftwareType,DateUTC
2013-11-13 00:01:00,26.0,17.0,-100.00,NNW,327,5.0,13.0,67,0.00,,,0.00,0.000000,,2013-11-13 05:01:00,
2013-11-13 00:23:00,26.0,17.0,-100.00,NNW,327,5.0,13.0,67,0.00,,,0.00,0.000000,,2013-11-13 05:23:00,
2013-11-13 00:34:00,26.0,17.0,-100.00,NNW,327,5.0,13.0,67,0.00,,,0.00,0.000000,,2013-11-13 05:34:00,
2013-11-13 00:43:00,26.0,17.0,-100.00,NNW,327,5.0,13.0,67,0.00,,,0.00,0.000000,,2013-11-13 05:43:00,
2013-11-13 00:54:00,26.0,17.0,-100.00,NNW,327,5.0,13.0,67,0.00,,,0.00,0.000000,,2013-11-13 05:54:00,
2013-11-13 01:01:00,25.0,17.0,-100.00,North,354,4.0,10.0,71,0.00,,,0.00,0.000000,,2013-11-13 06:01:00,
2013-11-13 01:42:00,25.0,17.0,-100.00,North,354,4.0,10.0,71,0.00,,,0.00,0.000000,,2013-11-13 06:42:00,
2013-11-13 01:52:00,25.0,17.0,-100.00,North,354,4.0,10.0,71,0.00,,,0.00,0.000000,,2013-11-13 06:52:00,
2013-11-13 02:01:00,25.0,15.0,-100.00,NNW,337,5.0,12.0,66,0.00,,,0.00,0.000000,,2013-11-13 07:01:00,
2013-11-13 02:42:00,25.0,15.0,-100.00,NNW,337,5.0,12.0,66,0.00,,,0.00,0.000000,,2013-11-13 07:42:00,
2013-11-13 02:52:00,25.0,15.0,-100.00,NNW,337,5.0,12.0,66,0.00,,,0.00,0.000000,,2013-11-13 07:52:00,
2013-11-13 03:01:00,24.0,12.0,-100.00,North,358,6.0,14.0,59,0.00,,,0.00,0.000000,,2013-11-13 08:01:00,
2013-11-13 03:22:00,24.0,12.0,-100.00,North,358,6.0,14.0,59,0.00,,,0.00,0.000000,,2013-11-13 08:22:00,
2013-11-13 03:32:00,24.0,12.0,-100.00,North,358,6.0,14.0,59,0.00,,,0.00,0.000000,,2013-11-13 08:32:00,
2013-11-13 03:42:00,24.0,12.0,-100.00,North,358,6.0,14.0,59,0.00,,,0.00,0.000000,,2013-11-13 08:42:00,
2013-11-13 03:52:00,24.0,12.0,-100.00,North,358,6.0,14.0,59,0.00,,,0.00,0.000000,,2013-11-13 08:52:00,
2013-11-13 04:01:00,24.0,11.0,-100.00,NE,45,4.0,19.0,57,0.00,,,0.00,0.000000,,2013-11-13 09:01:00,
2013-11-13 04:22:00,24.0,11.0,-100.00,NE,45,4.0,19.0,57,0.00,,,0.00,0.000000,,2013-11-13 09:22:00,
2013-11-13 04:33:00,24.0,11.0,-100.00,NE,45,4.0,19.0,57,0.00,,,0.00,0.000000,,2013-11-13 09:33:00,
2013-11-13 04:43:00,24.0,11.0,-100.00,NE,45,4.0,19.0,57,0.00,,,0.00,0.000000,,2013-11-13 09:43:00,
2013-11-13 04:53:00,24.0,11.0,-100.00,NE,45,4.0,19.0,57,0.00,,,0.00,0.000000,,2013-11-13 09:53:00,
2013-11-13 05:01:00,23.0,10.0,-100.00,NNE,19,4.0,15.0,56,0.00,,,0.00,0.000000,,2013-11-13 10:01:00,
2013-11-13 05:42:00,23.0,10.0,-100.00,NNE,19,4.0,15.0,56,0.00,,,0.00,0.000000,,2013-11-13 10:42:00,
2013-11-13 05:52:00,23.0,10.0,-100.00,NNE,19,4.0,15.0,56,0.00,,,0.00,0.000000,,2013-11-13 10:52:00,
2013-11-13 06:01:00,24.0,10.0,-100.00,NNE,22,3.0,12.0,55,0.00,,,-99.99,0.000000,,2013-11-13 11:01:00,
2013-11-13 06:42:00,24.0,10.0,-100.00,NNE,22,3.0,12.0,55,0.00,,,-99.99,0.000000,,2013-11-13 11:42:00,
2013-11-13 06:52:00,24.0,10.0,-100.00,NNE,22,3.0,12.0,55,0.00,,,-99.99,0.000000,,2013-11-13 11:52:00,
2013-11-13 07:01:00,23.0,10.0,-100.00,North,351,5.0,11.0,58,0.00,,,0.00,1.000000,,2013-11-13 12:01:00,
2013-11-13 07:42:00,23.0,10.0,-100.00,North,351,5.0,11.0,58,0.00,,,0.00,1.000000,,2013-11-13 12:42:00,
2013-11-13 07:52:00,23.0,10.0,-100.00,North,351,5.0,11.0,58,0.00,,,0.00,1.000000,,2013-11-13 12:52:00,
2013-11-13 08:01:00,24.0,11.0,-100.00,North,355,6.0,15.0,56,0.00,,,0.00,20.000000,,2013-11-13 13:01:00,
2013-11-13 08:22:00,24.0,11.0,-100.00,North,355,6.0,15.0,56,0.00,,,0.00,20.000000,,2013-11-13 13:22:00,
2013-11-13 08:32:00,24.0,11.0,-100.00,North,355,6.0,15.0,56,0.00,,,0.00,20.000000,,2013-11-13 13:32:00,
2013-11-13 08:42:00,24.0,11.0,-100.00,North,355,6.0,15.0,56,0.00,,,0.00,20.000000,,2013-11-13 13:42:00,
2013-11-13 08:52:00,24.0,11.0,-100.00,North,355,6.0,15.0,56,0.00,,,0.00,20.000000,,2013-11-13 13:52:00,
2013-11-13 09:01:00,26.0,11.0,-100.00,NE,42,6.0,21.0,53,0.00,,,0.00,70.000000,,2013-11-13 14:01:00,
2013-11-13 09:42:00,26.0,11.0,-100.00,NE,42,6.0,21.0,53,0.00,,,0.00,70.000000,,2013-11-13 14:42:00,
2013-11-13 09:53:00,26.0,11.0,-100.00,NE,42,6.0,21.0,53,0.00,,,0.00,70.000000,,2013-11-13 14:53:00,
2013-11-13 10:01:00,28.0,11.0,-100.00,North,357,5.0,12.0,48,0.00,,,0.00,86.000000,,2013-11-13 15:01:00,
2013-11-13 10:22:00,28.0,11.0,-100.00,North,357,5.0,12.0,48,0.00,,,0.00,86.000000,,2013-11-13 15:22:00,
2013-11-13 10:33:00,28.0,11.0,-100.00,North,357,5.0,12.0,48,0.00,,,0.00,86.000000,,2013-11-13 15:33:00,
2013-11-13 10:43:00,28.0,11.0,-100.00,North,357,5.0,12.0,48,0.00,,,0.00,86.000000,,2013-11-13 15:43:00,
2013-11-13 10:53:00,28.0,11.0,-100.00,North,357,5.0,12.0,48,0.00,,,0.00,86.000000,,2013-11-13 15:53:00,
2013-11-13 11:01:00,31.0,12.0,-100.00,NNE,28,5.0,11.0,44,0.00,,,0.00,280.000000,,2013-11-13 16:01:00,
2013-11-13 11:23:00,31.0,12.0,-100.00,NNE,28,5.0,11.0,44,0.00,,,0.00,280.000000,,2013-11-13 16:23:00,
2013-11-13 11:33:00,31.0,12.0,-100.00,NNE,28,5.0,11.0,44,0.00,,,0.00,280.000000,,2013-11-13 16:33:00,
2013-11-13 11:43:00,31.0,12.0,-100.00,NNE,28,5.0,11.0,44,0.00,,,0.00,280.000000,,2013-11-13 16:43:00,
2013-11-13 11:53:00,31.0,12.0,-100.00,NNE,28,5.0,11.0,44,0.00,,,0.00,280.000000,,2013-11-13 16:53:00,
2013-11-13 12:01:00,36.0,12.0,-100.00,NNW,345,4.0,11.0,37,0.00,,,0.00,590.000000,,2013-11-13 17:01:00,
2013-11-13 12:23:00,36.0,12.0,-100.00,NNW,345,4.0,11.0,37,0.00,,,0.00,590.000000,,2013-11-13 17:23:00,
2013-11-13 12:33:00,36.0,12.0,-100.00,NNW,345,4.0,11.0,37,0.00,,,0.00,590.000000,,2013-11-13 17:33:00,
2013-11-13 12:42:00,36.0,12.0,-100.00,NNW,345,4.0,11.0,37,0.00,,,0.00,590.000000,,2013-11-13 17:42:00,
2013-11-13 12:52:00,36.0,12.0,-100.00,NNW,345,4.0,11.0,37,0.00,,,0.00,590.000000,,2013-11-13 17:52:00,
2013-11-13 13:01:00,38.0,9.0,-100.00,North,6,5.0,11.0,30,0.00,,,0.00,644.000000,,2013-11-13 18:01:00,
2013-11-13 13:23:00,38.0,9.0,-100.00,North,6,5.0,11.0,30,0.00,,,0.00,644.000000,,2013-11-13 18:23:00,
2013-11-13 13:32:00,38.0,9.0,-100.00,North,6,5.0,11.0,30,0.00,,,0.00,644.000000,,2013-11-13 18:32:00,
2013-11-13 13:42:00,38.0,9.0,-100.00,North,6,5.0,11.0,30,0.00,,,0.00,644.000000,,2013-11-13 18:42:00,
2013-11-13 13:52:00,38.0,9.0,-100.00,North,6,5.0,11.0,30,0.00,,,0.00,644.000000,,2013-11-13 18:52:00,
2013-11-13 14:01:00,40.0,8.0,-100.00,North,356,4.0,11.0,26,0.00,,,0.00,582.000000,,2013-11-13 19:01:00,
2013-11-13 14:22:00,40.0,8.0,-100.00,North,356,4.0,11.0,26,0.00,,,0.00,582.000000,,2013-11-13 19:22:00,
2013-11-13 14:32:00,40.0,8.0,-100.00,North,356,4.0,11.0,26,0.00,,,0.00,582.000000,,2013-11-13 19:32:00,
2013-11-13 14:42:00,40.0,8.0,-100.00,North,356,4.0,11.0,26,0.00,,,0.00,582.000000,,2013-11-13 19:42:00,
2013-11-13 14:52:00,40.0,8.0,-100.00,North,356,4.0,11.0,26,0.00,,,0.00,582.000000,,2013-11-13 19:52:00,
2013-11-13 15:01:00,40.0,5.0,-100.00,NNW,331,5.0,11.0,23,0.00,,,0.00,461.000000,,2013-11-13 20:01:00,
2013-11-13 15:22:00,40.0,5.0,-100.00,NNW,331,5.0,11.0,23,0.00,,,0.00,461.000000,,2013-11-13 20:22:00,
2013-11-13 15:32:00,40.0,5.0,-100.00,NNW,331,5.0,11.0,23,0.00,,,0.00,461.000000,,2013-11-13 20:32:00,
2013-11-13 15:42:00,40.0,5.0,-100.00,NNW,331,5.0,11.0,23,0.00,,,0.00,461.000000,,2013-11-13 20:42:00,
2013-11-13 15:52:00,40.0,5.0,-100.00,NNW,331,5.0,11.0,23,0.00,,,0.00,461.000000,,2013-11-13 20:52:00,
2013-11-13 16:01:00,38.0,4.0,-100.00,NW,320,4.0,10.0,23,0.00,,,0.00,237.000000,,2013-11-13 21:01:00,
2013-11-13 16:22:00,38.0,4.0,-100.00,NW,320,4.0,10.0,23,0.00,,,0.00,237.000000,,2013-11-13 21:22:00,
2013-11-13 16:33:00,38.0,4.0,-100.00,NW,320,4.0,10.0,23,0.00,,,0.00,237.000000,,2013-11-13 21:33:00,
2013-11-13 16:43:00,38.0,4.0,-100.00,NW,320,4.0,10.0,23,0.00,,,0.00,237.000000,,2013-11-13 21:43:00,
2013-11-13 16:53:00,38.0,4.0,-100.00,NW,320,4.0,10.0,23,0.00,,,0.00,237.000000,,2013-11-13 21:53:00,
2013-11-13 17:01:00,35.0,2.0,-100.00,WNW,301,3.0,11.0,24,0.00,,,0.00,26.000000,,2013-11-13 22:01:00,
2013-11-13 17:23:00,35.0,2.0,-100.00,WNW,301,3.0,11.0,24,0.00,,,0.00,26.000000,,2013-11-13 22:23:00,
2013-11-13 17:33:00,35.0,2.0,-100.00,WNW,301,3.0,11.0,24,0.00,,,0.00,26.000000,,2013-11-13 22:33:00,
2013-11-13 17:42:00,35.0,2.0,-100.00,WNW,301,3.0,11.0,24,0.00,,,0.00,26.000000,,2013-11-13 22:42:00,
2013-11-13 17:53:00,35.0,2.0,-100.00,WNW,301,3.0,11.0,24,0.00,,,0.00,26.000000,,2013-11-13 22:53:00,
2013-11-13 18:01:00,33.0,2.0,-100.00,East,80,2.0,11.0,26,0.00,,,0.00,1.000000,,2013-11-13 23:01:00,
2013-11-13 18:22:00,33.0,2.0,-100.00,East,80,2.0,11.0,26,0.00,,,0.00,1.000000,,2013-11-13 23:22:00,
2013-11-13 18:32:00,33.0,2.0,-100.00,East,80,2.0,11.0,26,0.00,,,0.00,1.000000,,2013-11-13 23:32:00,
2013-11-13 18:43:00,33.0,2.0,-100.00,East,80,2.0,11.0,26,0.00,,,0.00,1.000000,,2013-11-13 23:43:00,
2013-11-13 18:53:00,33.0,2.0,-100.00,East,80,2.0,11.0,26,0.00,,,0.00,1.000000,,2013-11-13 23:53:00,
2013-11-13 19:01:00,31.0,5.0,-100.00,SW,234,3.0,11.0,33,0.00,,,0.00,0.000000,,2013-11-14 00:01:00,
2013-11-13 19:22:00,31.0,5.0,-100.00,SW,234,3.0,11.0,33,0.00,,,0.00,0.000000,,2013-11-14 00:22:00,
2013-11-13 19:32:00,31.0,5.0,-100.00,SW,234,3.0,11.0,33,0.00,,,0.00,0.000000,,2013-11-14 00:32:00,
2013-11-13 19:42:00,31.0,5.0,-100.00,SW,234,3.0,11.0,33,0.00,,,0.00,0.000000,,2013-11-14 00:42:00,
2013-11-13 19:52:00,31.0,5.0,-100.00,SW,234,3.0,11.0,33,0.00,,,0.00,0.000000,,2013-11-14 00:52:00,
2013-11-13 20:01:00,30.0,10.0,-100.00,NW,309,3.0,10.0,43,0.00,,,0.00,0.000000,,2013-11-14 01:01:00,
2013-11-13 20:42:00,30.0,10.0,-100.00,NW,309,3.0,10.0,43,0.00,,,0.00,0.000000,,2013-11-14 01:42:00,
2013-11-13 20:52:00,30.0,10.0,-100.00,NW,309,3.0,10.0,43,0.00,,,0.00,0.000000,,2013-11-14 01:52:00,
2013-11-13 21:01:00,29.0,8.0,-100.00,West,270,3.0,11.0,41,0.00,,,0.00,0.000000,,2013-11-14 02:01:00,
2013-11-13 21:53:00,29.0,8.0,-100.00,West,270,3.0,11.0,41,0.00,,,0.00,0.000000,,2013-11-14 02:53:00,
2013-11-13 22:01:00,29.0,8.0,-100.00,South,183,2.0,6.0,40,0.00,,,0.00,0.000000,,2013-11-14 03:01:00,
2013-11-13 22:44:00,29.0,8.0,-100.00,South,183,2.0,6.0,40,0.00,,,0.00,0.000000,,2013-11-14 03:44:00,
2013-11-13 22:54:00,29.0,8.0,-100.00,South,183,2.0,6.0,40,0.00,,,0.00,0.000000,,2013-11-14 03:54:00,
2013-11-13 23:01:00,29.0,8.0,-100.00,SSE,151,2.0,6.0,41,0.00,,,0.00,0.000000,,2013-11-14 04:01:00,
2013-11-13 23:43:00,29.0,8.0,-100.00,SSE,151,2.0,6.0,41,0.00,,,0.00,0.000000,,2013-11-14 04:43:00,
2013-11-13 23:54:00,29.0,8.0,-100.00,SSE,151,2.0,6.0,41,0.00,,,0.00,0.000000,,2013-11-14 04:54:00,